Terminal Aerodrome Forecast
Issued by NWS

Home | Current Version | Previous Version | Text Only | Print | Product List | Glossary On
Versions: 1 2 3 4 5 6 7 8 9 10 11 12
000
FTUS44 KOUN 201120
TAFHBR
TAF
KHBR 201120Z 2012/2112 18012KT P6SM SCT050 BKN250
     FM201500 18022G32KT P6SM BKN030
     FM210000 17021G27KT P6SM BKN015=

USA.gov is the U.S. government's official web portal to all federal, state and local government web resources and services.